Time;durP1;ratioP1;P1;durP2;ratioP2;P2;SDS_P1;SDS_P2;PMS_P1;PMS_P2;Temp;Humidity;BMP_temperature;BMP_pressure;BME280_temperature;BME280_humidity;BME280_pressure;Samples;Min_cycle;Max_cycle;Signal;HPM_P1;HPM_P2
2023/04/03 00:03:41;;;;;;;3.23;2.80;;;;;;;6.97;41.69;100716.34;10367810;28;20232;-70
2023/04/03 00:08:43;;;;;;;3.97;3.50;;;;;;;6.72;41.64;100676.94;10356963;28;20236;-71
2023/04/03 00:13:44;;;;;;;3.03;2.70;;;;;;;7.68;40.65;100773.00;10369229;28;20236;-70
2023/04/03 00:18:46;;;;;;;5.63;4.17;;;;;;;9.28;39.04;100781.88;10374871;28;20236;-70
2023/04/03 00:23:48;;;;;;;5.13;4.63;;;;;;;9.29;39.76;100761.34;10367293;28;20244;-71
2023/04/03 00:28:49;;;;;;;6.27;4.67;;;;;;;7.48;41.87;100686.94;10365177;28;20264;-71
2023/04/03 00:33:51;;;;;;;4.60;3.63;;;;;;;9.06;40.39;100756.41;10359918;28;20226;-71
2023/04/03 00:38:53;;;;;;;3.33;3.03;;;;;;;8.37;41.52;100747.91;10363071;28;20244;-70
2023/04/03 00:43:54;;;;;;;4.40;4.00;;;;;;;8.96;40.81;100761.84;10360167;28;20249;-71
2023/04/03 00:48:56;;;;;;;4.83;3.90;;;;;;;7.29;42.50;100642.50;10373622;28;20240;-71
2023/04/03 00:54:04;;;;;;;4.10;3.57;;;;;;;9.07;40.95;100746.59;10354752;28;20279;-71
2023/04/03 00:59:10;;;;;;;3.90;3.50;;;;;;;8.50;41.06;100754.72;10366960;28;20235;-70
2023/04/03 01:04:27;;;;;;;4.50;4.10;;;;;;;7.30;42.10;100645.03;10368895;28;20224;-71
2023/04/03 01:09:30;;;;;;;3.43;3.13;;;;;;;7.99;41.43;100723.03;10359999;28;20229;-71
2023/04/03 01:14:31;;;;;;;4.23;2.90;;;;;;;7.93;41.46;100699.63;10367006;28;20228;-70
2023/04/03 01:19:38;;;;;;;4.10;3.80;;;;;;;7.60;41.76;100655.66;10370373;28;20225;-70
2023/04/03 01:24:39;;;;;;;4.10;3.70;;;;;;;7.05;42.89;100595.88;10356113;28;20607;-70
2023/04/03 01:29:43;;;;;;;3.70;3.40;;;;;;;6.58;42.36;100546.03;10365807;28;20843;-71
2023/04/03 01:34:45;;;;;;;3.60;3.30;;;;;;;8.68;41.02;100720.94;10371534;28;20247;-70
2023/04/03 01:39:46;;;;;;;3.63;3.33;;;;;;;7.71;40.91;100690.97;10368698;28;20287;-71
2023/04/03 01:44:49;;;;;;;3.47;3.13;;;;;;;7.43;41.46;100662.56;10374903;28;20236;-70
2023/04/03 01:49:50;;;;;;;3.00;2.80;;;;;;;7.33;42.02;100650.09;10367526;28;20303;-69
2023/04/03 01:54:52;;;;;;;3.53;3.20;;;;;;;5.76;43.95;100448.84;10361593;28;20225;-69
2023/04/03 01:59:53;;;;;;;3.60;3.30;;;;;;;5.73;42.84;100488.97;10360782;28;20620;-70
2023/04/03 02:04:55;;;;;;;3.87;3.00;;;;;;;5.42;43.62;100427.06;10369966;28;20728;-69
2023/04/03 02:09:57;;;;;;;4.07;3.53;;;;;;;6.62;42.86;100603.28;10366684;28;20716;-70
2023/04/03 02:14:58;;;;;;;4.47;2.80;;;;;;;6.23;43.26;100567.81;10369508;28;20312;-70
2023/04/03 02:20:00;;;;;;;4.03;3.27;;;;;;;6.66;42.29;100611.81;10371773;28;20286;-69
2023/04/03 02:25:02;;;;;;;5.37;3.20;;;;;;;5.93;43.32;100542.16;10367587;28;20233;-69
2023/04/03 02:30:05;;;;;;;3.30;3.00;;;;;;;5.29;43.24;100506.94;10362607;28;20236;-69
2023/04/03 02:35:07;;;;;;;4.13;3.73;;;;;;;5.57;44.02;100509.84;10372531;28;20332;-69
2023/04/03 02:40:09;;;;;;;4.50;3.30;;;;;;;7.01;42.14;100665.53;10363912;28;20228;-70
2023/04/03 02:45:10;;;;;;;3.80;3.30;;;;;;;6.70;42.35;100631.00;10374907;28;20228;-69
2023/04/03 02:50:12;;;;;;;4.53;2.97;;;;;;;6.40;42.39;100615.00;10364263;28;20417;-69
2023/04/03 02:55:15;;;;;;;3.63;3.20;;;;;;;6.66;42.39;100633.09;10367847;28;20232;-69
2023/04/03 03:00:17;;;;;;;3.30;3.00;;;;;;;6.99;41.77;100655.84;10374132;28;20228;-69
2023/04/03 03:05:19;;;;;;;3.57;3.30;;;;;;;5.96;42.32;100571.94;10339608;28;20233;-69
2023/04/03 03:10:21;;;;;;;3.43;3.13;;;;;;;6.49;42.35;100629.28;10331069;28;20316;-70
2023/04/03 03:15:23;;;;;;;3.20;2.90;;;;;;;6.96;41.94;100661.44;10359235;28;20233;-69
2023/04/03 03:20:25;;;;;;;6.43;3.20;;;;;;;6.43;41.71;100630.69;10360770;28;20240;-70
2023/04/03 03:25:26;;;;;;;4.67;2.93;;;;;;;4.84;43.67;100480.69;10355794;28;20727;-69
2023/04/03 03:30:28;;;;;;;3.30;3.10;;;;;;;4.92;43.60;100478.25;10362152;28;20237;-69
2023/04/03 03:35:30;;;;;;;3.87;3.03;;;;;;;5.43;43.22;100541.06;10369434;28;20701;-65
2023/04/03 03:40:31;;;;;;;4.33;3.00;;;;;;;6.34;41.89;100604.91;10347241;28;20228;-69
2023/04/03 03:45:33;;;;;;;4.93;3.20;;;;;;;4.97;43.63;100497.25;10354842;28;20234;-69
2023/04/03 03:50:35;;;;;;;3.33;3.00;;;;;;;5.91;42.32;100578.63;10359573;28;20739;-66
2023/04/03 03:55:37;;;;;;;3.20;2.90;;;;;;;6.64;41.66;100637.72;9453745;28;10000481;-67
2023/04/03 04:00:39;;;;;;;3.30;3.00;;;;;;;6.98;41.50;100648.00;10309224;28;20262;-68
2023/04/03 04:05:41;;;;;;;9.03;6.77;;;;;;;6.83;41.55;100652.06;10308059;28;20242;-70
2023/04/03 04:10:43;;;;;;;4.73;3.30;;;;;;;4.89;43.88;100483.78;10310883;28;20343;-70
2023/04/03 04:15:45;;;;;;;3.40;3.10;;;;;;;7.40;41.00;100671.66;10303339;28;20229;-69
2023/04/03 04:20:46;;;;;;;3.27;3.03;;;;;;;5.31;43.15;100528.88;10304965;28;20416;-69
2023/04/03 04:25:48;;;;;;;6.30;3.33;;;;;;;6.21;42.61;100615.81;10311163;28;20277;-70
2023/04/03 04:30:50;;;;;;;4.33;3.03;;;;;;;5.46;42.80;100547.94;10304582;28;20242;-70
2023/04/03 04:35:52;;;;;;;11.40;3.47;;;;;;;6.76;41.47;100655.25;10307372;28;20725;-69
2023/04/03 04:40:53;;;;;;;3.43;3.13;;;;;;;7.02;41.93;100662.72;10311099;28;20268;-69
2023/04/03 04:46:11;;;;;;;3.97;3.17;;;;;;;6.34;42.58;100604.06;10311095;28;20302;-69
2023/04/03 04:51:13;;;;;;;3.33;3.00;;;;;;;7.20;41.63;100670.84;10306084;28;20214;-70
2023/04/03 04:56:15;;;;;;;4.57;3.13;;;;;;;7.03;42.14;100660.91;10309120;28;20652;-69
2023/04/03 05:01:16;;;;;;;3.47;3.20;;;;;;;5.81;42.74;100594.53;10297498;28;20680;-70
2023/04/03 05:06:18;;;;;;;4.93;3.87;;;;;;;6.95;42.18;100667.75;10313795;28;20324;-70
2023/04/03 05:11:20;;;;;;;3.80;3.37;;;;;;;7.59;41.60;100677.94;10304317;28;20577;-70
2023/04/03 05:16:26;;;;;;;5.10;4.17;;;;;;;5.39;43.23;100550.28;10302620;28;20253;-69
2023/04/03 05:21:31;;;;;;;4.03;3.53;;;;;;;6.13;43.09;100607.66;10311549;28;20217;-69
2023/04/03 05:26:33;;;;;;;3.87;3.30;;;;;;;5.74;43.73;100572.13;10305855;28;20769;-69
2023/04/03 05:31:35;;;;;;;4.30;3.90;;;;;;;6.33;43.31;100623.66;10309556;28;20233;-69
2023/04/03 05:36:37;;;;;;;4.10;3.70;;;;;;;5.77;43.22;100609.03;10309358;28;20241;-69
2023/04/03 05:41:39;;;;;;;3.50;3.20;;;;;;;6.22;42.75;100635.25;10310695;28;20596;-69
2023/04/03 05:46:41;;;;;;;4.13;3.20;;;;;;;4.79;43.96;100520.84;10306329;28;20244;-69
2023/04/03 05:51:44;;;;;;;3.80;3.40;;;;;;;5.07;43.70;100545.06;10297168;28;20238;-70
2023/04/03 05:56:46;;;;;;;3.50;3.20;;;;;;;6.57;42.58;100652.56;10314263;28;20240;-69
2023/04/03 06:01:48;;;;;;;3.23;2.93;;;;;;;4.37;44.07;100526.09;10306759;28;20250;-69
2023/04/03 06:06:53;;;;;;;3.90;3.60;;;;;;;4.40;43.81;100504.63;10307001;28;20678;-70
2023/04/03 06:11:55;;;;;;;3.40;3.07;;;;;;;5.94;42.13;100660.72;10298641;28;20241;-69
2023/04/03 06:16:57;;;;;;;3.87;3.00;;;;;;;6.19;42.05;100648.78;10306203;28;20269;-69
2023/04/03 06:22:00;;;;;;;3.67;3.37;;;;;;;6.27;42.07;100672.88;10312693;28;20328;-69
2023/04/03 06:27:01;;;;;;;4.93;3.27;;;;;;;6.23;42.34;100648.41;10305882;28;20238;-69
2023/04/03 06:32:03;;;;;;;3.30;3.00;;;;;;;6.65;41.48;100686.44;10308984;28;20245;-69
2023/04/03 06:37:05;;;;;;;3.90;3.40;;;;;;;5.79;42.28;100649.59;10307841;28;20226;-69
2023/04/03 06:42:06;;;;;;;3.47;3.10;;;;;;;5.82;42.53;100658.16;10302326;28;20238;-69
2023/04/03 06:47:12;;;;;;;3.50;3.20;;;;;;;7.67;41.39;100713.53;10297877;28;20248;-69
2023/04/03 06:52:14;;;;;;;4.23;3.60;;;;;;;5.84;43.10;100647.38;10294019;28;20235;-69
2023/04/03 06:57:15;;;;;;;3.70;3.30;;;;;;;8.35;40.19;100709.03;10308198;28;20241;-69
2023/04/03 07:02:17;;;;;;;6.20;3.63;;;;;;;7.17;41.78;100708.38;10302903;28;20312;-70
2023/04/03 07:07:19;;;;;;;4.13;3.73;;;;;;;5.79;42.83;100621.22;10303943;28;20242;-70
2023/04/03 07:12:20;;;;;;;4.23;3.83;;;;;;;6.70;42.28;100705.47;10302347;28;20512;-70
2023/04/03 07:17:22;;;;;;;3.73;3.43;;;;;;;7.65;41.98;100723.50;10310814;28;20233;-69
2023/04/03 07:22:23;;;;;;;4.37;3.03;;;;;;;6.56;41.73;100664.97;10313444;28;20333;-69
2023/04/03 07:27:25;;;;;;;4.07;3.67;;;;;;;6.52;42.53;100700.81;10311591;28;20237;-70
2023/04/03 07:32:27;;;;;;;4.93;3.57;;;;;;;7.62;41.63;100749.59;10314084;28;20236;-70
2023/04/03 07:37:28;;;;;;;5.13;3.40;;;;;;;6.21;43.43;100662.78;10309923;28;20342;-69
2023/04/03 07:42:30;;;;;;;5.60;3.50;;;;;;;6.02;43.13;100684.81;10302108;28;20230;-69
2023/04/03 07:47:32;;;;;;;4.37;3.37;;;;;;;6.78;42.88;100716.31;10340447;28;20237;-69
2023/04/03 07:52:34;;;;;;;3.63;3.33;;;;;;;6.94;42.77;100718.47;10311871;28;20242;-70
2023/04/03 07:57:36;;;;;;;4.93;4.03;;;;;;;6.67;42.21;100708.41;10305446;28;20227;-70
2023/04/03 08:02:37;;;;;;;3.77;3.40;;;;;;;7.47;42.37;100749.16;10305135;28;20739;-69
2023/04/03 08:07:39;;;;;;;5.13;3.90;;;;;;;8.02;41.30;100749.41;10317465;28;20246;-69
2023/04/03 08:12:41;;;;;;;3.83;3.43;;;;;;;7.73;41.91;100762.78;10307540;28;20309;-69
2023/04/03 08:17:43;;;;;;;5.13;3.93;;;;;;;7.70;41.32;100768.38;10310054;28;20645;-70
2023/04/03 08:22:44;;;;;;;4.70;3.80;;;;;;;8.88;40.29;100728.88;10315006;28;20284;-72
2023/04/03 08:27:46;;;;;;;4.83;4.03;;;;;;;7.62;42.07;100729.09;10314359;28;20241;-72
2023/04/03 08:32:48;;;;;;;4.43;3.53;;;;;;;8.65;40.82;100753.25;10311800;28;20250;-71
2023/04/03 08:37:50;;;;;;;5.40;3.43;;;;;;;8.47;40.20;100738.03;10316906;28;20253;-71
2023/04/03 08:43:18;;;;;;;4.07;2.97;;;;;;;8.67;40.64;100757.47;10301453;28;20241;-69
2023/04/03 08:48:23;;;;;;;3.83;3.40;;;;;;;8.73;40.75;100757.88;10308160;28;20241;-71
2023/04/03 08:53:31;;;;;;;4.80;3.27;;;;;;;8.43;40.21;100755.31;10300515;28;20264;-69
2023/04/03 08:58:47;;;;;;;4.70;3.10;;;;;;;8.55;39.82;100749.78;10307887;28;20226;-71
2023/04/03 09:03:49;;;;;;;3.60;3.27;;;;;;;8.73;39.73;100777.38;10301009;28;20814;-71
2023/04/03 09:09:10;;;;;;;5.13;3.50;;;;;;;8.21;40.12;100747.69;10310776;28;20238;-69
2023/04/03 09:14:51;;;;;;;3.37;3.07;;;;;;;8.31;39.94;100761.00;10327893;28;20250;-71
2023/04/03 09:20:06;;;;;;;5.13;3.43;;;;;;;10.35;38.37;100707.81;10301460;28;20243;-71
2023/04/03 09:25:12;;;;;;;4.57;3.70;;;;;;;9.74;38.96;100733.66;10303596;28;20245;-71
2023/04/03 09:30:33;;;;;;;3.00;2.67;;;;;;;9.15;39.14;100739.50;10309368;28;20248;-69
2023/04/03 09:35:37;;;;;;;3.93;2.90;;;;;;;8.48;39.48;100733.53;10312994;28;20229;-69
2023/04/03 09:41:06;;;;;;;3.30;3.10;;;;;;;9.17;39.80;100748.19;10301432;28;20251;-71
2023/04/03 09:46:33;;;;;;;5.50;3.43;;;;;;;8.04;39.60;100672.81;10308180;28;20245;-69
2023/04/03 09:51:35;;;;;;;6.90;3.27;;;;;;;8.34;39.67;100726.88;10309760;28;20234;-71
2023/04/03 09:56:37;;;;;;;4.03;3.40;;;;;;;8.06;39.07;100720.63;10311807;28;20230;-69
2023/04/03 10:01:42;;;;;;;2.90;2.60;;;;;;;8.92;38.44;100754.28;10304452;28;20241;-71
2023/04/03 10:06:46;;;;;;;3.50;3.07;;;;;;;9.25;38.00;100750.13;10304797;28;20883;-71
2023/04/03 10:12:00;;;;;;;4.83;3.27;;;;;;;9.19;37.83;100767.56;10301823;28;20316;-71
2023/04/03 10:17:55;;;;;;;3.00;2.70;;;;;;;8.35;37.23;100693.03;10302043;28;20707;-69
2023/04/03 10:23:00;;;;;;;3.60;2.97;;;;;;;7.64;38.39;100601.09;10306326;28;20234;-71
2023/04/03 10:28:10;;;;;;;4.07;3.67;;;;;;;8.92;37.92;100733.75;10308432;28;20242;-71
2023/04/03 10:33:42;;;;;;;3.90;2.90;;;;;;;9.61;37.31;100733.22;10307777;28;20245;-69
2023/04/03 10:39:21;;;;;;;4.90;2.97;;;;;;;9.11;36.74;100740.81;10301435;28;20222;-69
2023/04/03 10:44:39;;;;;;;6.10;3.20;;;;;;;9.39;36.58;100736.22;10303438;28;20772;-71
2023/04/03 10:49:54;;;;;;;4.27;2.63;;;;;;;8.59;36.51;100661.31;10304488;28;20696;-69
2023/04/03 10:55:20;;;;;;;2.60;2.40;;;;;;;8.51;35.92;100647.06;10302953;28;20236;-69
2023/04/03 11:06:39;;;;;;;3.43;2.70;;;;;;;6.28;38.70;100636.50;10441619;27;20808;-70
2023/04/03 11:11:43;;;;;;;2.50;2.30;;;;;;;8.01;37.71;100710.41;10321362;28;20234;-70
2023/04/03 11:16:55;;;;;;;3.03;2.43;;;;;;;8.75;37.16;100707.84;10350077;28;20283;-72
2023/04/03 11:22:04;;;;;;;2.83;2.57;;;;;;;7.21;37.17;100688.50;10351786;28;20246;-71
2023/04/03 11:27:16;;;;;;;3.40;2.30;;;;;;;8.10;37.88;100709.56;10364039;28;20237;-71
2023/04/03 11:32:48;;;;;;;5.07;2.47;;;;;;;7.94;37.43;100706.66;10370284;28;20733;-71
2023/04/03 11:37:54;;;;;;;2.53;2.33;;;;;;;8.38;36.17;100714.91;10350856;28;20626;-71
2023/04/03 11:43:06;;;;;;;3.10;2.27;;;;;;;7.02;37.08;100622.81;10352381;28;20743;-70
2023/04/03 11:48:31;;;;;;;2.77;2.53;;;;;;;8.04;36.27;100704.78;10357685;28;20240;-71
2023/04/03 11:53:35;;;;;;;2.27;2.07;;;;;;;7.26;36.01;100640.16;10353250;28;20750;-71
2023/04/03 11:58:37;;;;;;;2.50;2.30;;;;;;;8.57;36.11;100713.13;10351729;28;20671;-70
2023/04/03 12:03:39;;;;;;;2.97;2.23;;;;;;;8.20;35.84;100716.66;10352470;28;20272;-70
2023/04/03 12:08:41;;;;;;;2.80;2.10;;;;;;;8.24;35.60;100710.91;10349527;28;20285;-71
2023/04/03 12:13:49;;;;;;;3.13;2.60;;;;;;;7.86;36.11;100701.19;10353820;28;20237;-71
2023/04/03 12:18:58;;;;;;;3.33;2.40;;;;;;;9.40;35.27;100689.81;10324611;28;20319;-71
2023/04/03 12:24:08;;;;;;;5.47;2.50;;;;;;;8.26;35.76;100676.09;10324953;28;20243;-71
2023/04/03 12:29:24;;;;;;;4.27;3.10;;;;;;;8.28;36.56;100698.09;10319620;28;20770;-70
2023/04/03 12:34:35;;;;;;;3.60;2.67;;;;;;;8.41;35.33;100695.13;10328365;28;20317;-70
2023/04/03 12:39:48;;;;;;;3.10;2.90;;;;;;;7.66;36.02;100639.94;10327922;28;20234;-71
2023/04/03 12:45:04;;;;;;;5.73;2.70;;;;;;;8.35;36.10;100675.19;10325313;28;20234;-71
2023/04/03 12:50:33;;;;;;;3.20;2.90;;;;;;;7.20;36.41;100580.31;10329005;28;20233;-71
2023/04/03 12:55:35;;;;;;;3.30;2.40;;;;;;;8.79;35.25;100686.06;10329624;28;20368;-71
2023/04/03 13:00:39;;;;;;;3.67;2.60;;;;;;;9.26;35.49;100676.16;10322910;28;20241;-71
2023/04/03 13:05:45;;;;;;;2.27;2.13;;;;;;;8.10;35.85;100629.56;10327318;28;20588;-71
2023/04/03 13:11:23;;;;;;;2.60;2.40;;;;;;;9.06;35.52;100662.97;10314575;28;20238;-71
2023/04/03 13:16:26;;;;;;;2.97;2.40;;;;;;;8.28;35.64;100644.78;10273651;28;20244;-70
2023/04/03 13:21:30;;;;;;;2.40;2.20;;;;;;;7.24;36.58;100563.09;10308255;28;20567;-71
2023/04/03 13:26:32;;;;;;;3.50;2.50;;;;;;;8.71;36.20;100666.41;10281255;28;20242;-70
2023/04/03 13:31:38;;;;;;;2.90;2.57;;;;;;;8.37;35.79;100659.91;10326006;28;20244;-71
2023/04/03 13:37:01;;;;;;;2.83;2.57;;;;;;;8.40;36.28;100643.56;10330138;28;20318;-71
2023/04/03 13:42:23;;;;;;;47.73;31.73;;;;;;;9.53;35.07;100654.69;10321499;28;20330;-71
2023/04/03 13:47:25;;;;;;;3.80;3.50;;;;;;;7.94;35.85;100583.22;10324595;28;20233;-70
2023/04/03 13:52:35;;;;;;;3.37;2.77;;;;;;;7.68;36.12;100594.53;10325076;28;20242;-70
2023/04/03 13:57:49;;;;;;;3.13;2.83;;;;;;;7.10;36.25;100515.63;10330926;28;20336;-71
2023/04/03 14:02:56;;;;;;;3.83;2.80;;;;;;;8.21;36.29;100625.03;10319885;28;20248;-71
2023/04/03 14:07:58;;;;;;;2.67;2.43;;;;;;;7.82;36.36;100601.19;10332301;28;20241;-70
2023/04/03 14:13:00;;;;;;;3.53;3.23;;;;;;;8.75;35.94;100623.28;10321913;28;20222;-71
2023/04/03 14:18:01;;;;;;;6.57;4.90;;;;;;;7.27;35.88;100552.13;10321834;28;20234;-71
2023/04/03 14:23:07;;;;;;;5.17;2.60;;;;;;;7.74;35.69;100594.75;10319751;28;20260;-71
2023/04/03 14:28:18;;;;;;;3.07;2.57;;;;;;;7.54;35.90;100543.38;10321947;28;20244;-71
2023/04/03 14:33:21;;;;;;;2.70;2.50;;;;;;;7.52;35.62;100553.31;10318673;28;20739;-71
2023/04/03 14:38:26;;;;;;;4.67;3.00;;;;;;;7.62;35.57;100545.31;10321925;28;20272;-70
2023/04/03 14:43:28;;;;;;;4.10;3.00;;;;;;;8.62;36.00;100609.47;10310310;28;20232;-67
2023/04/03 14:48:30;;;;;;;5.77;5.23;;;;;;;7.17;36.45;100495.44;10330118;28;20230;-72
2023/04/03 14:53:32;;;;;;;3.50;3.17;;;;;;;7.80;36.47;100565.88;10307456;28;20636;-73
2023/04/03 14:58:37;;;;;;;5.57;5.00;;;;;;;7.01;36.70;100473.91;10317717;28;20233;-72
2023/04/03 15:05:35;;;;;;;3.67;2.77;;;;;;;6.30;38.63;100560.16;10538584;27;20318;-76
2023/04/03 15:10:37;;;;;;;3.40;2.90;;;;;;;6.50;38.53;100553.00;10488897;28;20227;-75
2023/04/03 15:15:39;;;;;;;6.97;5.30;;;;;;;7.18;38.30;100561.00;10475556;28;20242;-74
2023/04/03 15:20:42;;;;;;;11.37;8.73;;;;;;;7.57;36.63;100566.22;10477327;28;20228;-75
2023/04/03 15:25:47;;;;;;;2.73;2.50;;;;;;;6.49;37.44;100541.53;10491848;28;20228;-75
2023/04/03 15:30:50;;;;;;;2.90;2.47;;;;;;;6.90;36.57;100547.59;10486030;28;20244;-75
2023/04/03 15:35:52;;;;;;;4.27;2.93;;;;;;;7.12;36.85;100557.09;10456962;28;20232;-75
2023/04/03 15:40:56;;;;;;;3.40;3.10;;;;;;;6.76;36.14;100548.03;10482892;28;20749;-75
2023/04/03 15:45:59;;;;;;;3.03;2.80;;;;;;;7.15;35.73;100567.44;10428141;28;20245;-75
2023/04/03 15:51:01;;;;;;;5.20;3.30;;;;;;;6.64;35.92;100547.28;10442813;28;20276;-73
2023/04/03 15:56:04;;;;;;;2.60;2.40;;;;;;;7.25;35.50;100570.09;10440411;28;20242;-69
2023/04/03 16:01:06;;;;;;;3.13;2.83;;;;;;;7.98;35.43;100560.59;10481048;28;20229;-71
2023/04/03 16:06:07;;;;;;;3.83;2.50;;;;;;;6.69;36.23;100545.03;10429019;28;20872;-70
2023/04/03 16:11:09;;;;;;;3.27;2.97;;;;;;;7.49;34.73;100569.63;10434707;28;20241;-70
2023/04/03 16:16:11;;;;;;;2.83;2.63;;;;;;;7.34;35.52;100558.59;10402417;28;20244;-77
2023/04/03 16:21:15;;;;;;;2.93;2.60;;;;;;;6.73;35.99;100541.13;10442568;28;20670;-74
2023/04/03 16:26:17;;;;;;;4.63;2.90;;;;;;;7.65;35.02;100587.63;10402658;28;20240;-76
2023/04/03 16:31:19;;;;;;;3.00;2.80;;;;;;;7.42;34.84;100576.47;10452729;28;20200;-71
2023/04/03 16:36:21;;;;;;;2.80;2.60;;;;;;;6.98;35.31;100558.34;10452394;28;20317;-71
2023/04/03 16:41:23;;;;;;;2.63;2.40;;;;;;;7.65;35.15;100563.66;10453754;28;20220;-70
2023/04/03 16:46:25;;;;;;;3.27;2.63;;;;;;;7.07;35.14;100563.81;10428528;28;20228;-69
2023/04/03 16:51:26;;;;;;;3.87;2.77;;;;;;;6.60;35.66;100548.56;10446612;28;20205;-73
2023/04/03 16:56:28;;;;;;;2.77;2.57;;;;;;;7.30;35.08;100573.16;10431508;28;20236;-72
2023/04/03 17:01:31;;;;;;;3.30;3.10;;;;;;;7.50;34.33;100573.94;10436318;28;20255;-70
2023/04/03 17:06:33;;;;;;;5.17;2.90;;;;;;;7.60;34.66;100570.44;10440557;28;20247;-71
2023/04/03 17:11:36;;;;;;;3.17;2.37;;;;;;;8.19;33.86;100585.19;10421248;28;20716;-71
2023/04/03 17:16:38;;;;;;;3.67;3.00;;;;;;;8.77;34.24;100575.91;10424808;28;20242;-69
2023/04/03 17:21:40;;;;;;;3.70;3.00;;;;;;;6.71;34.64;100550.22;10441295;28;20239;-68
2023/04/03 17:26:43;;;;;;;2.80;2.60;;;;;;;7.92;34.19;100586.03;10425784;28;20225;-67
2023/04/03 17:31:45;;;;;;;3.80;2.80;;;;;;;6.75;34.15;100559.59;10443034;28;20907;-67
2023/04/03 17:36:48;;;;;;;3.90;2.80;;;;;;;6.50;34.44;100547.69;10436120;28;20251;-68
2023/04/03 17:41:50;;;;;;;3.93;2.63;;;;;;;7.62;34.24;100576.44;10448551;28;20232;-69
2023/04/03 17:46:53;;;;;;;3.43;2.77;;;;;;;7.14;34.73;100570.25;10441427;28;20259;-69
2023/04/03 17:51:55;;;;;;;2.77;2.57;;;;;;;7.09;34.84;100560.03;10421503;28;20243;-69
2023/04/03 17:56:58;;;;;;;5.17;2.90;;;;;;;6.20;34.85;100550.31;10424423;28;20313;-68
2023/04/03 18:02:00;;;;;;;3.57;2.93;;;;;;;7.55;34.63;100568.19;10422890;28;20545;-72
2023/04/03 18:07:03;;;;;;;3.03;2.73;;;;;;;7.18;34.86;100559.16;10395010;28;20579;-72
2023/04/03 18:12:08;;;;;;;3.20;2.90;;;;;;;7.10;34.99;100553.72;10429323;28;20236;-72
2023/04/03 18:17:10;;;;;;;3.97;2.80;;;;;;;6.69;35.10;100546.88;10411842;28;20224;-73
2023/04/03 18:22:16;;;;;;;4.00;2.97;;;;;;;7.29;34.81;100558.19;10388278;28;20246;-74
2023/04/03 18:27:21;;;;;;;2.80;2.60;;;;;;;6.98;34.75;100538.91;10438121;28;20287;-72
2023/04/03 18:32:23;;;;;;;4.37;2.93;;;;;;;7.40;34.58;100567.81;10452432;28;20235;-72
2023/04/03 18:37:25;;;;;;;4.33;2.67;;;;;;;7.90;34.11;100567.53;10451197;28;20224;-69
2023/04/03 18:42:27;;;;;;;2.73;2.20;;;;;;;6.11;34.79;100513.94;10432705;28;20259;-69
2023/04/03 18:47:30;;;;;;;3.10;2.80;;;;;;;6.56;34.88;100533.84;10404870;28;20649;-71
2023/04/03 18:52:32;;;;;;;2.60;2.40;;;;;;;6.92;34.32;100547.44;10428400;28;20293;-72
2023/04/03 18:57:34;;;;;;;3.53;2.43;;;;;;;7.18;33.80;100568.97;10447062;28;20269;-75
2023/04/03 19:02:37;;;;;;;5.53;3.13;;;;;;;6.34;34.68;100553.56;10443370;28;20419;-74
2023/04/03 19:07:43;;;;;;;3.37;3.17;;;;;;;6.12;35.10;100544.84;10436836;28;20232;-73
2023/04/03 19:12:49;;;;;;;3.67;2.60;;;;;;;6.29;35.26;100542.50;10399601;28;20352;-74
2023/04/03 19:17:52;;;;;;;3.47;2.73;;;;;;;6.12;35.20;100539.53;10431240;28;20232;-75
2023/04/03 19:22:55;;;;;;;2.70;2.50;;;;;;;5.94;34.80;100538.50;10441573;28;20258;-74
2023/04/03 19:27:58;;;;;;;2.90;2.70;;;;;;;6.20;34.94;100542.34;10411580;28;20327;-72
2023/04/03 19:33:00;;;;;;;4.97;2.70;;;;;;;6.44;34.64;100547.28;10432165;28;20297;-68
2023/04/03 19:38:02;;;;;;;2.90;2.70;;;;;;;6.03;34.62;100535.88;10414479;28;20231;-68
2023/04/03 19:43:04;;;;;;;2.60;2.40;;;;;;;6.38;34.85;100541.66;10438424;28;20343;-68
2023/04/03 19:48:07;;;;;;;3.03;2.67;;;;;;;5.62;35.10;100519.13;10440537;28;20725;-68
2023/04/03 19:53:13;;;;;;;3.40;2.90;;;;;;;6.29;34.96;100524.72;10442213;28;20736;-68
2023/04/03 19:58:15;;;;;;;4.43;2.93;;;;;;;6.64;34.60;100534.00;10424946;28;20323;-74
2023/04/03 20:03:18;;;;;;;2.73;2.53;;;;;;;6.77;34.85;100541.72;10432992;28;20227;-73
2023/04/03 20:08:20;;;;;;;4.27;3.87;;;;;;;5.24;35.85;100493.22;10428561;28;20243;-69
2023/04/03 20:13:22;;;;;;;3.50;3.20;;;;;;;5.49;35.39;100514.00;10444849;28;20286;-73
2023/04/03 20:18:25;;;;;;;3.60;3.20;;;;;;;5.35;35.16;100495.75;10453576;28;20773;-72
2023/04/03 20:23:28;;;;;;;2.80;2.60;;;;;;;4.90;36.41;100485.50;10448373;28;20838;-72
2023/04/03 20:28:31;;;;;;;3.83;2.83;;;;;;;5.24;35.78;100488.75;10451269;28;20309;-72
2023/04/03 20:33:36;;;;;;;2.67;2.47;;;;;;;4.97;36.05;100477.84;10450491;28;20370;-73
2023/04/03 20:38:41;;;;;;;3.20;2.90;;;;;;;6.21;35.53;100512.16;10429802;28;20317;-72
2023/04/03 20:43:45;;;;;;;3.33;3.10;;;;;;;6.45;35.65;100513.56;10436741;28;20315;-74
2023/04/03 20:48:47;;;;;;;3.17;2.87;;;;;;;5.31;36.22;100497.84;10426686;28;20244;-72
2023/04/03 20:53:49;;;;;;;3.20;2.90;;;;;;;4.96;36.13;100469.03;10444228;28;20229;-72
2023/04/03 20:58:55;;;;;;;4.90;3.40;;;;;;;5.33;36.22;100472.03;10429754;28;20318;-72
2023/04/03 21:04:05;;;;;;;3.87;3.57;;;;;;;5.69;36.09;100483.09;10452706;28;20234;-72
2023/04/03 21:09:45;;;;;;;3.37;3.07;;;;;;;5.35;37.00;100465.72;10431742;28;20251;-72
2023/04/03 21:15:26;;;;;;;3.60;2.70;;;;;;;5.48;36.71;100461.03;10398999;28;20308;-72
2023/04/03 21:20:30;;;;;;;3.00;2.80;;;;;;;3.97;37.70;100437.44;10419754;28;20259;-72
2023/04/03 21:25:32;;;;;;;2.93;2.60;;;;;;;5.30;37.41;100460.81;10424760;28;20227;-72
2023/04/03 21:30:35;;;;;;;5.13;3.20;;;;;;;4.58;37.02;100455.41;10414726;28;20246;-72
2023/04/03 21:35:37;;;;;;;2.93;2.63;;;;;;;3.88;37.71;100430.25;10413123;28;20224;-72
2023/04/03 21:40:40;;;;;;;3.40;3.20;;;;;;;5.19;37.29;100455.63;10430508;28;20278;-72
2023/04/03 21:45:43;;;;;;;3.20;3.00;;;;;;;5.55;36.97;100478.09;10416831;28;20277;-72
2023/04/03 21:50:46;;;;;;;2.80;2.60;;;;;;;4.66;37.32;100461.88;10422434;28;20320;-72
2023/04/03 21:55:58;;;;;;;3.87;3.20;;;;;;;5.35;37.37;100471.03;10420323;28;20232;-72
2023/04/03 22:01:10;;;;;;;4.10;2.93;;;;;;;5.49;37.17;100457.41;10407678;28;20670;-72
2023/04/03 22:06:15;;;;;;;6.70;3.80;;;;;;;4.81;37.92;100442.03;10423631;28;20663;-72
2023/04/03 22:11:17;;;;;;;3.93;3.53;;;;;;;4.61;38.26;100438.41;10442541;28;20216;-72
2023/04/03 22:16:21;;;;;;;3.23;2.60;;;;;;;4.32;37.69;100435.53;10385706;28;20236;-72
2023/04/03 22:21:25;;;;;;;3.60;3.30;;;;;;;4.06;38.57;100421.78;10389195;28;20318;-72
2023/04/03 22:26:27;;;;;;;3.67;2.83;;;;;;;4.31;38.23;100432.03;10395190;28;20254;-72
2023/04/03 22:31:30;;;;;;;3.00;2.70;;;;;;;4.78;38.21;100431.69;10398037;28;20209;-72
2023/04/03 22:36:31;;;;;;;3.17;2.80;;;;;;;3.82;38.43;100406.94;10388428;28;20722;-72
2023/04/03 22:41:34;;;;;;;3.70;2.80;;;;;;;3.72;38.84;100416.59;10399827;28;20319;-72
2023/04/03 22:46:36;;;;;;;3.20;3.00;;;;;;;4.01;38.48;100403.59;10397300;28;20302;-72
2023/04/03 22:51:38;;;;;;;5.03;2.93;;;;;;;3.79;38.47;100409.81;10385357;28;20246;-72
2023/04/03 22:56:40;;;;;;;3.00;2.70;;;;;;;4.50;38.29;100426.03;10423837;28;20232;-72
2023/04/03 23:01:43;;;;;;;2.93;2.73;;;;;;;4.34;37.99;100423.84;10391000;28;20232;-72
2023/04/03 23:06:46;;;;;;;3.63;2.83;;;;;;;4.14;38.09;100416.69;10387764;28;20244;-72
2023/04/03 23:11:48;;;;;;;2.90;2.70;;;;;;;3.81;38.16;100407.88;10385007;28;20657;-72
2023/04/03 23:16:50;;;;;;;3.20;2.93;;;;;;;4.40;37.74;100431.28;10394236;28;20270;-72
2023/04/03 23:21:52;;;;;;;3.47;2.60;;;;;;;3.55;38.44;100410.00;10389703;28;20321;-71
2023/04/03 23:32:00;;;;;;;4.33;3.30;;;;;;;4.57;37.76;100413.94;10359935;28;20425;-36
2023/04/03 23:37:02;;;;;;;4.00;2.90;;;;;;;3.97;38.69;100404.84;10409034;28;20687;-37
2023/04/03 23:42:07;;;;;;;3.43;2.83;;;;;;;4.14;38.30;100409.56;10422819;23;20238;-75
2023/04/03 23:47:09;;;;;;;2.90;2.70;;;;;;;3.05;39.52;100368.09;10440196;28;20238;-74
2023/04/03 23:52:11;;;;;;;3.87;3.50;;;;;;;3.23;39.00;100379.84;10444432;28;20281;-73